createdAt,value
2022-12-09T00:01:18.808Z,84.99
2022-12-09T00:03:47.576Z,86.28
2022-12-09T00:06:16.697Z,85.63
2022-12-09T00:08:44.979Z,85.58
2022-12-09T00:11:13.532Z,88.25
2022-12-09T00:13:41.644Z,85.50
2022-12-09T00:16:14.369Z,87.66
2022-12-09T00:18:43.382Z,86.98
2022-12-09T00:21:18.465Z,86.71
2022-12-09T00:23:47.365Z,85.84
2022-12-09T00:26:16.401Z,84.42
2022-12-09T00:28:45.001Z,83.56
2022-12-09T00:31:18.442Z,86.59
2022-12-09T00:33:46.619Z,87.23
2022-12-09T00:36:17.465Z,87.20
2022-12-09T00:38:45.743Z,87.68
2022-12-09T00:41:14.689Z,87.00
2022-12-09T00:43:43.802Z,85.51
2022-12-09T00:46:12.807Z,85.50
2022-12-09T00:48:41.655Z,84.81
2022-12-09T00:51:15.383Z,85.14
2022-12-09T00:53:43.340Z,83.62
2022-12-09T00:56:11.660Z,85.01
2022-12-09T00:58:39.864Z,84.74
2022-12-09T01:01:07.873Z,84.31
2022-12-09T01:03:37.078Z,84.30
2022-12-09T01:06:14.787Z,84.33
2022-12-09T01:08:43.103Z,85.05
2022-12-09T01:11:24.022Z,84.74
2022-12-09T01:13:53.165Z,82.56
2022-12-09T01:16:25.054Z,83.60
2022-12-09T01:18:54.672Z,83.07
2022-12-09T01:21:24.768Z,83.27
2022-12-09T01:23:53.053Z,83.32
2022-12-09T01:26:21.653Z,83.76
2022-12-09T01:28:53.446Z,82.84
2022-12-09T01:31:24.366Z,83.30
2022-12-09T01:33:52.575Z,83.20
2022-12-09T01:36:31.069Z,82.64
2022-12-09T01:39:00.245Z,82.78
2022-12-09T01:41:28.645Z,83.63
2022-12-09T01:44:23.195Z,82.86
2022-12-09T01:46:55.874Z,83.77
2022-12-09T01:49:32.371Z,83.09
2022-12-09T01:52:16.452Z,84.27
2022-12-09T01:54:46.897Z,84.00
2022-12-09T01:57:15.826Z,85.00
2022-12-09T01:59:45.930Z,85.29
2022-12-09T02:02:18.293Z,82.20
2022-12-09T02:04:49.294Z,83.46
2022-12-09T02:07:19.294Z,83.82
2022-12-09T02:09:53.208Z,82.82
2022-12-09T02:12:52.395Z,82.26
2022-12-09T02:15:37.542Z,81.15
2022-12-09T02:18:18.685Z,80.65
2022-12-09T02:21:04.562Z,80.80
2022-12-09T02:23:58.723Z,80.27
2022-12-09T02:26:35.867Z,80.52
2022-12-09T02:29:28.450Z,80.31
2022-12-09T02:31:59.447Z,79.97
2022-12-09T02:34:31.747Z,79.85
2022-12-09T02:37:10.805Z,80.73
2022-12-09T02:39:44.631Z,81.30
2022-12-09T02:42:17.465Z,80.59
2022-12-09T02:44:49.492Z,81.40
2022-12-09T02:47:23.185Z,81.95
2022-12-09T02:49:56.015Z,81.13
2022-12-09T02:52:24.781Z,80.85
2022-12-09T02:54:54.137Z,80.87
2022-12-09T02:57:28.204Z,80.28
2022-12-09T02:59:56.301Z,80.59
2022-12-09T03:02:31.906Z,80.37
2022-12-09T03:05:27.367Z,79.96
2022-12-09T03:08:22.054Z,79.99
2022-12-09T03:10:59.283Z,80.18
2022-12-09T03:13:35.532Z,79.95
2022-12-09T03:16:13.282Z,80.09
2022-12-09T03:18:47.817Z,80.00
2022-12-09T03:21:21.462Z,80.04
2022-12-09T03:23:53.715Z,78.87
2022-12-09T03:26:24.063Z,79.84
2022-12-09T03:28:53.127Z,80.03
2022-12-09T03:31:25.067Z,79.77
2022-12-09T03:33:56.423Z,80.07
2022-12-09T03:36:26.493Z,79.98
2022-12-09T03:38:55.630Z,80.34
2022-12-09T03:41:30.532Z,80.20
2022-12-09T03:44:08.114Z,80.24
2022-12-09T03:46:36.277Z,79.66
2022-12-09T03:49:04.850Z,80.24
2022-12-09T03:51:38.805Z,79.61
2022-12-09T03:54:28.375Z,79.20
2022-12-09T03:56:58.392Z,79.57
2022-12-09T03:59:31.248Z,79.66
2022-12-09T04:01:59.280Z,79.92
2022-12-09T04:04:28.687Z,81.55
2022-12-09T04:06:56.457Z,80.90
2022-12-09T04:09:24.302Z,80.58
2022-12-09T04:11:52.468Z,80.42
2022-12-09T04:14:20.055Z,80.55
2022-12-09T04:16:48.165Z,80.39
2022-12-09T04:19:16.731Z,80.74
2022-12-09T04:21:44.730Z,80.23
2022-12-09T04:24:13.213Z,80.67
2022-12-09T04:26:41.447Z,80.39
2022-12-09T04:29:10.671Z,80.09
2022-12-09T04:31:38.826Z,80.12
2022-12-09T04:34:09.555Z,80.08
2022-12-09T04:36:38.728Z,80.87
2022-12-09T04:39:07.644Z,80.12
2022-12-09T04:41:35.493Z,79.98
2022-12-09T04:44:03.174Z,80.67
2022-12-09T04:46:31.178Z,80.02
2022-12-09T04:48:59.008Z,80.88
2022-12-09T04:51:26.888Z,79.91
2022-12-09T04:53:55.008Z,80.51
2022-12-09T04:56:23.023Z,78.93
2022-12-09T04:58:51.822Z,81.57
2022-12-09T05:01:26.668Z,82.41
2022-12-09T05:03:58.722Z,84.23
2022-12-09T05:06:27.542Z,81.68
2022-12-09T05:08:55.687Z,81.59
2022-12-09T05:11:24.744Z,81.84
2022-12-09T05:13:54.113Z,82.66
2022-12-09T05:16:22.570Z,81.68
2022-12-09T05:18:50.814Z,83.73
2022-12-09T05:21:21.720Z,84.71
2022-12-09T05:23:49.784Z,84.75
2022-12-09T05:26:21.544Z,84.12
2022-12-09T05:28:51.725Z,82.67
2022-12-09T05:31:22.078Z,82.75
2022-12-09T05:33:51.546Z,82.75
2022-12-09T05:36:30.432Z,81.14
2022-12-09T05:38:58.666Z,81.87
2022-12-09T05:41:27.324Z,82.67
2022-12-09T05:43:56.056Z,81.91
2022-12-09T05:46:24.373Z,83.32
2022-12-09T05:48:52.448Z,84.49
2022-12-09T05:51:26.612Z,83.54
2022-12-09T05:53:56.712Z,82.76
2022-12-09T05:56:25.474Z,82.05
2022-12-09T05:58:54.651Z,82.58
2022-12-09T06:01:24.224Z,80.83
2022-12-09T06:03:54.006Z,80.73
2022-12-09T06:06:24.032Z,83.41
2022-12-09T06:08:56.377Z,83.45
2022-12-09T06:11:25.072Z,83.52
2022-12-09T06:13:54.166Z,81.91
2022-12-09T06:16:22.598Z,81.84
2022-12-09T06:18:51.533Z,82.65
2022-12-09T06:21:20.899Z,82.40
2022-12-09T06:23:49.761Z,83.01
2022-12-09T06:26:26.325Z,82.70
2022-12-09T06:28:55.511Z,83.02
2022-12-09T06:31:23.995Z,82.57
2022-12-09T06:33:55.290Z,82.25
2022-12-09T06:36:25.022Z,83.40
2022-12-09T06:38:53.302Z,82.38
2022-12-09T06:41:21.293Z,81.95
2022-12-09T06:43:49.549Z,82.04
2022-12-09T06:46:20.469Z,81.24
2022-12-09T06:48:48.327Z,81.87
2022-12-09T06:51:18.439Z,80.99
2022-12-09T06:53:46.844Z,80.98
2022-12-09T06:56:15.624Z,80.46
2022-12-09T06:58:45.746Z,83.36
2022-12-09T07:01:22.996Z,82.68
2022-12-09T07:03:54.703Z,84.31
2022-12-09T07:06:38.344Z,84.76
2022-12-09T07:09:10.573Z,82.76
2022-12-09T07:11:39.148Z,82.29
2022-12-09T07:14:07.487Z,80.59
2022-12-09T07:16:36.227Z,81.89
2022-12-09T07:19:05.535Z,81.90
2022-12-09T07:21:34.480Z,82.38
2022-12-09T07:24:03.885Z,82.07
2022-12-09T07:26:32.968Z,82.23
2022-12-09T07:29:03.682Z,83.08
2022-12-09T07:31:32.077Z,84.51
2022-12-09T07:34:01.121Z,83.02
2022-12-09T07:36:30.952Z,82.95
2022-12-09T07:39:04.905Z,83.44
2022-12-09T07:41:33.871Z,83.46
2022-12-09T07:44:01.881Z,84.12
2022-12-09T07:46:29.960Z,83.16
2022-12-09T07:48:58.630Z,82.10
2022-12-09T07:51:26.786Z,83.00
2022-12-09T07:53:54.940Z,82.43
2022-12-09T07:56:24.029Z,81.88
2022-12-09T07:58:54.101Z,82.71
2022-12-09T08:01:24.744Z,82.26
2022-12-09T08:03:53.814Z,82.04
2022-12-09T08:06:25.826Z,82.60
2022-12-09T08:08:57.491Z,81.47
2022-12-09T08:11:27.510Z,81.61
2022-12-09T08:14:07.181Z,83.49
2022-12-09T08:16:38.587Z,83.18
2022-12-09T08:19:07.163Z,83.86
2022-12-09T08:21:35.144Z,84.79
2022-12-09T08:24:06.118Z,83.11
2022-12-09T08:26:35.042Z,82.43
2022-12-09T08:29:08.137Z,83.35
2022-12-09T08:31:40.962Z,84.17
2022-12-09T08:34:10.158Z,81.36
2022-12-09T08:36:38.587Z,80.63
2022-12-09T08:39:07.176Z,80.34
2022-12-09T08:41:38.191Z,80.16
2022-12-09T08:44:11.382Z,79.79
2022-12-09T08:46:41.767Z,80.58
2022-12-09T08:49:10.999Z,79.93
2022-12-09T08:51:39.680Z,79.94
2022-12-09T08:54:07.733Z,80.36
2022-12-09T08:56:36.079Z,80.03
2022-12-09T08:59:04.792Z,83.10
2022-12-09T09:01:34.889Z,81.82
2022-12-09T09:04:10.731Z,81.81
2022-12-09T09:06:40.934Z,81.75
2022-12-09T09:09:11.059Z,82.31
2022-12-09T09:11:40.474Z,82.13
2022-12-09T09:14:10.238Z,82.48
2022-12-09T09:16:40.861Z,82.84
2022-12-09T09:19:11.200Z,83.02
2022-12-09T09:21:39.346Z,83.38
2022-12-09T09:24:12.809Z,83.56
2022-12-09T09:26:42.611Z,83.82
2022-12-09T09:29:15.170Z,83.85
2022-12-09T09:31:44.054Z,84.75
2022-12-09T09:34:12.367Z,84.25
2022-12-09T09:36:41.323Z,85.17
2022-12-09T09:39:10.523Z,85.24
2022-12-09T09:41:56.334Z,85.36
2022-12-09T09:44:44.789Z,86.78
2022-12-09T09:47:36.206Z,86.94
2022-12-09T09:50:31.766Z,87.14
2022-12-09T09:53:10.425Z,87.10
2022-12-09T09:55:47.593Z,87.93
2022-12-09T09:58:24.588Z,88.72
2022-12-09T10:01:00.166Z,88.88
2022-12-09T10:03:54.317Z,89.34
2022-12-09T10:07:13.377Z,88.63
2022-12-09T10:09:47.939Z,89.96
2022-12-09T10:12:45.360Z,89.39
2022-12-09T10:15:20.614Z,89.01
2022-12-09T10:17:59.585Z,89.63
2022-12-09T10:20:30.594Z,89.86
2022-12-09T10:23:05.057Z,89.64
2022-12-09T10:25:42.811Z,89.39
2022-12-09T10:28:54.313Z,90.47
2022-12-09T10:31:29.727Z,91.05
2022-12-09T10:33:57.840Z,90.95
2022-12-09T10:36:35.171Z,91.05
2022-12-09T10:39:05.302Z,91.36
2022-12-09T10:42:03.146Z,90.90
2022-12-09T10:44:31.160Z,90.37
2022-12-09T10:47:07.972Z,90.10
2022-12-09T10:49:36.309Z,89.76
2022-12-09T10:52:06.329Z,89.68
2022-12-09T10:54:44.887Z,89.15
2022-12-09T10:57:13.549Z,89.04
2022-12-09T10:59:43.171Z,89.24
2022-12-09T11:02:11.082Z,90.45
2022-12-09T11:04:42.903Z,90.29
2022-12-09T11:07:16.732Z,90.01
2022-12-09T11:09:52.352Z,89.55
2022-12-09T11:12:41.049Z,89.31
2022-12-09T11:15:12.695Z,89.22
2022-12-09T11:17:56.048Z,88.71
2022-12-09T11:20:29.262Z,89.09
2022-12-09T11:23:05.434Z,88.76
2022-12-09T11:25:36.065Z,88.89
2022-12-09T11:28:26.928Z,88.85
2022-12-09T11:33:59.442Z,88.82
2022-12-09T11:36:37.078Z,88.94
2022-12-09T11:39:26.158Z,88.52
2022-12-09T11:42:20.717Z,88.63
2022-12-09T11:44:48.250Z,88.53
2022-12-09T11:47:57.259Z,88.50
2022-12-09T11:50:31.315Z,88.73
2022-12-09T11:53:07.479Z,88.32
2022-12-09T11:55:41.840Z,87.93
2022-12-09T11:58:15.858Z,88.75
2022-12-09T12:00:51.260Z,88.61
2022-12-09T12:03:26.592Z,89.71
2022-12-09T12:05:55.499Z,87.39
2022-12-09T12:08:26.277Z,87.06
2022-12-09T12:10:57.879Z,87.19
2022-12-09T12:13:48.738Z,87.27
2022-12-09T12:16:16.294Z,87.23
2022-12-09T12:19:03.218Z,88.06
2022-12-09T12:21:36.961Z,86.94
2022-12-09T12:24:34.202Z,87.14
2022-12-09T12:27:20.576Z,87.47
2022-12-09T12:29:57.624Z,87.02
2022-12-09T12:32:34.369Z,86.93
2022-12-09T12:35:45.536Z,87.77
2022-12-09T12:38:43.957Z,88.26
2022-12-09T12:41:36.259Z,87.81
2022-12-09T12:45:08.720Z,87.88
2022-12-09T12:47:41.156Z,87.93
2022-12-09T12:50:14.778Z,90.62
2022-12-09T12:53:01.490Z,89.82
2022-12-09T12:56:11.485Z,87.65
2022-12-09T12:58:49.083Z,87.54
2022-12-09T13:01:42.713Z,88.22
2022-12-09T13:04:28.830Z,88.61
2022-12-09T13:07:08.412Z,88.58
2022-12-09T13:10:14.153Z,88.50
2022-12-09T13:12:54.251Z,87.87
2022-12-09T13:15:37.342Z,87.10
2022-12-09T13:18:11.884Z,87.12
2022-12-09T13:20:53.048Z,87.07
2022-12-09T13:23:46.416Z,87.34
2022-12-09T13:26:32.435Z,87.54
2022-12-09T13:29:11.939Z,87.93
2022-12-09T13:31:53.064Z,87.46
2022-12-09T13:34:35.820Z,88.81
2022-12-09T13:37:04.535Z,88.43
2022-12-09T13:39:41.593Z,88.29
2022-12-09T13:42:46.569Z,88.17
2022-12-09T13:45:34.578Z,87.85
2022-12-09T13:48:16.522Z,87.88
2022-12-09T13:50:57.559Z,88.93
2022-12-09T13:53:59.948Z,88.67
2022-12-09T13:56:34.564Z,88.84
2022-12-09T13:59:43.955Z,88.99
2022-12-09T14:02:39.029Z,88.90
2022-12-09T14:05:11.364Z,90.42
2022-12-09T14:07:53.195Z,89.88
2022-12-09T14:10:38.378Z,89.89
2022-12-09T14:13:26.984Z,89.11
2022-12-09T14:16:15.454Z,89.90
2022-12-09T14:18:44.433Z,89.31
2022-12-09T14:21:18.648Z,89.15
2022-12-09T14:24:07.671Z,88.99
2022-12-09T14:26:38.239Z,88.99
2022-12-09T14:29:08.117Z,88.89
2022-12-09T14:31:55.039Z,88.72
2022-12-09T14:34:28.274Z,89.21
2022-12-09T14:37:29.375Z,89.55
2022-12-09T14:40:17.941Z,90.88
2022-12-09T14:43:33.128Z,91.00
2022-12-09T14:46:04.318Z,91.21
2022-12-09T14:48:39.461Z,92.11
2022-12-09T14:51:18.822Z,92.74
2022-12-09T14:53:50.337Z,93.85
2022-12-09T14:56:20.694Z,92.85
2022-12-09T14:58:51.747Z,93.20
2022-12-09T15:01:19.430Z,92.67
2022-12-09T15:03:59.305Z,93.47
2022-12-09T15:06:28.371Z,93.11
2022-12-09T15:08:58.183Z,92.57
2022-12-09T15:11:31.530Z,92.43
2022-12-09T15:14:23.400Z,92.22
2022-12-09T15:16:51.560Z,92.64
2022-12-09T15:19:51.580Z,91.73
2022-12-09T15:22:24.641Z,92.54
2022-12-09T15:25:00.810Z,91.56
2022-12-09T15:27:28.559Z,92.37
2022-12-09T15:29:56.620Z,92.75
2022-12-09T15:32:26.952Z,92.91
2022-12-09T15:34:54.932Z,92.82
2022-12-09T15:37:26.731Z,92.47
2022-12-09T15:40:08.733Z,92.40
2022-12-09T15:42:41.714Z,92.61
2022-12-09T15:45:16.652Z,92.15
2022-12-09T15:48:04.259Z,91.81
2022-12-09T15:50:49.024Z,91.62
2022-12-09T15:53:29.476Z,91.71
2022-12-09T15:56:26.053Z,92.26
2022-12-09T15:58:58.779Z,92.38
2022-12-09T16:01:33.185Z,91.45
2022-12-09T16:04:03.173Z,91.37
2022-12-09T16:06:36.803Z,90.82
2022-12-09T16:09:23.715Z,90.41
2022-12-09T16:11:54.353Z,89.87
2022-12-09T16:14:23.824Z,89.45
2022-12-09T16:16:54.876Z,89.55
2022-12-09T16:19:31.429Z,89.36
2022-12-09T16:22:04.828Z,91.74
2022-12-09T16:25:13.100Z,89.84
2022-12-09T16:27:34.493Z,89.47
2022-12-09T16:30:09.894Z,89.32
2022-12-09T16:32:44.648Z,89.15
2022-12-09T16:35:18.894Z,89.37
2022-12-09T16:37:55.745Z,89.50
2022-12-09T16:40:23.946Z,90.55
2022-12-09T16:43:15.285Z,89.56
2022-12-09T16:45:54.543Z,89.56
2022-12-09T16:48:24.708Z,89.65
2022-12-09T16:50:57.126Z,90.04
2022-12-09T16:53:34.192Z,90.43
2022-12-09T16:56:03.974Z,90.17
2022-12-09T16:58:34.002Z,90.27
2022-12-09T17:01:03.461Z,90.63
2022-12-09T17:03:37.921Z,91.48
2022-12-09T17:06:07.013Z,90.94
2022-12-09T17:08:36.660Z,91.05
2022-12-09T17:11:04.218Z,90.55
2022-12-09T17:13:33.125Z,90.95
2022-12-09T17:16:01.861Z,91.19
2022-12-09T17:18:30.307Z,90.32
2022-12-09T17:21:07.335Z,91.75
2022-12-09T17:23:39.706Z,90.43
2022-12-09T17:26:11.118Z,89.63
2022-12-09T17:28:39.981Z,89.41
2022-12-09T17:31:10.509Z,89.46
2022-12-09T17:33:38.718Z,88.79
2022-12-09T17:36:07.451Z,88.54
2022-12-09T17:38:35.542Z,88.47
2022-12-09T17:41:08.464Z,89.72
2022-12-09T17:43:37.485Z,89.61
2022-12-09T17:46:06.301Z,88.86
2022-12-09T17:48:36.001Z,90.11
2022-12-09T17:51:10.236Z,89.16
2022-12-09T17:53:40.105Z,89.57
2022-12-09T17:56:17.281Z,88.51
2022-12-09T17:58:44.812Z,88.35
2022-12-09T18:01:19.107Z,88.47
2022-12-09T18:03:56.084Z,87.89
2022-12-09T18:06:31.234Z,87.26
2022-12-09T18:08:59.819Z,87.29
2022-12-09T18:11:27.695Z,87.65
2022-12-09T18:13:55.316Z,87.04
2022-12-09T18:16:23.680Z,87.92
2022-12-09T18:18:52.480Z,88.06
2022-12-09T18:21:21.029Z,87.03
2022-12-09T18:23:48.964Z,87.33
2022-12-09T18:26:18.533Z,87.89
2022-12-09T18:28:46.600Z,88.77
2022-12-09T18:31:19.117Z,86.77
2022-12-09T18:33:47.445Z,86.88
2022-12-09T18:36:24.087Z,87.49
2022-12-09T18:38:52.131Z,89.01
2022-12-09T18:41:26.592Z,87.87
2022-12-09T18:43:55.385Z,87.37
2022-12-09T18:46:28.058Z,87.08
2022-12-09T18:49:10.905Z,87.24
2022-12-09T18:51:39.817Z,87.80
2022-12-09T18:54:08.258Z,88.02
2022-12-09T18:56:36.760Z,88.12
2022-12-09T18:59:07.099Z,88.18
2022-12-09T19:01:39.594Z,88.45
2022-12-09T19:04:23.756Z,89.04
2022-12-09T19:06:57.094Z,89.12
2022-12-09T19:09:33.464Z,89.89
2022-12-09T19:12:30.065Z,90.16
2022-12-09T19:14:53.271Z,88.96
2022-12-09T19:17:21.806Z,90.91
2022-12-09T19:19:49.840Z,89.47
2022-12-09T19:22:18.007Z,89.39
2022-12-09T19:24:45.572Z,91.09
2022-12-09T19:27:13.556Z,89.88
2022-12-09T19:29:42.067Z,87.61
2022-12-09T19:32:29.323Z,88.38
2022-12-09T19:34:58.524Z,88.20
2022-12-09T19:37:26.351Z,88.00
2022-12-09T19:39:54.369Z,87.62
2022-12-09T19:42:22.221Z,88.36
2022-12-09T19:45:12.095Z,87.51
2022-12-09T19:47:39.479Z,87.96
2022-12-09T19:50:08.112Z,88.43
2022-12-09T19:52:36.900Z,89.91
2022-12-09T19:55:05.251Z,91.26
2022-12-09T19:57:33.252Z,92.31
2022-12-09T20:00:01.070Z,91.64
2022-12-09T20:02:29.330Z,92.31
2022-12-09T20:04:57.435Z,91.87
2022-12-09T20:07:25.501Z,91.34
2022-12-09T20:09:53.438Z,91.79
2022-12-09T20:12:21.714Z,90.80
2022-12-09T20:14:49.530Z,91.96
2022-12-09T20:17:17.440Z,91.58
2022-12-09T20:19:47.253Z,90.92
2022-12-09T20:22:15.206Z,90.62
2022-12-09T20:24:43.413Z,92.00
2022-12-09T20:27:11.640Z,90.44
2022-12-09T20:29:40.153Z,91.60
2022-12-09T20:32:08.842Z,91.57
2022-12-09T20:34:40.875Z,92.22
2022-12-09T20:37:08.891Z,93.33
2022-12-09T20:39:36.941Z,90.97
2022-12-09T20:42:05.926Z,90.93
2022-12-09T20:44:33.742Z,92.70
2022-12-09T20:47:01.639Z,93.01
2022-12-09T20:49:30.276Z,92.87
2022-12-09T20:51:58.789Z,90.69
2022-12-09T20:54:27.059Z,90.32
2022-12-09T20:56:54.821Z,89.76
2022-12-09T20:59:22.723Z,92.32
2022-12-09T21:01:50.821Z,92.98
2022-12-09T21:04:18.505Z,92.59
2022-12-09T21:06:46.388Z,91.33
2022-12-09T21:09:21.581Z,90.60
2022-12-09T21:11:50.422Z,91.89
2022-12-09T21:14:19.423Z,91.79
2022-12-09T21:16:50.414Z,92.09
2022-12-09T21:19:24.936Z,92.81
2022-12-09T21:21:53.595Z,92.40
2022-12-09T21:24:23.977Z,93.54
2022-12-09T21:26:53.437Z,92.95
2022-12-09T21:29:23.734Z,92.39
2022-12-09T21:31:55.143Z,91.61
2022-12-09T21:34:24.678Z,92.14
2022-12-09T21:36:52.570Z,94.36
2022-12-09T21:39:20.415Z,93.56
2022-12-09T21:41:49.161Z,96.15
2022-12-09T21:44:18.775Z,95.88
2022-12-09T21:46:46.606Z,95.53
2022-12-09T21:49:14.807Z,94.74
2022-12-09T21:51:43.467Z,95.25
2022-12-09T21:54:11.478Z,95.89
2022-12-09T21:56:39.277Z,94.65
2022-12-09T21:59:07.630Z,93.20
2022-12-09T22:01:41.295Z,92.61
2022-12-09T22:04:12.966Z,93.59
2022-12-09T22:06:40.345Z,93.73
2022-12-09T22:09:09.099Z,91.91
2022-12-09T22:11:38.151Z,92.26
2022-12-09T22:14:07.564Z,92.84
2022-12-09T22:16:38.939Z,91.69
2022-12-09T22:19:08.460Z,91.73
2022-12-09T22:21:37.199Z,90.12
2022-12-09T22:24:06.839Z,91.01
2022-12-09T22:26:35.329Z,91.08
2022-12-09T22:29:05.569Z,91.05
2022-12-09T22:31:36.985Z,90.62
2022-12-09T22:34:11.620Z,91.66
2022-12-09T22:36:40.211Z,91.08
2022-12-09T22:39:14.492Z,90.48
2022-12-09T22:41:43.750Z,91.36
2022-12-09T22:44:14.268Z,89.91
2022-12-09T22:46:42.246Z,89.95
2022-12-09T22:49:11.938Z,90.09
2022-12-09T22:51:41.505Z,90.08
2022-12-09T22:54:10.223Z,89.00
2022-12-09T22:56:39.964Z,87.78
2022-12-09T22:59:07.940Z,88.63
2022-12-09T23:01:37.584Z,89.14
2022-12-09T23:04:07.106Z,90.06
2022-12-09T23:06:37.602Z,90.41
2022-12-09T23:09:07.599Z,90.17
2022-12-09T23:11:36.165Z,90.04
2022-12-09T23:14:04.297Z,89.14
2022-12-09T23:16:31.954Z,89.68
2022-12-09T23:19:00.151Z,88.06
2022-12-09T23:21:30.133Z,87.48
2022-12-09T23:24:00.648Z,86.92
2022-12-09T23:26:31.318Z,87.46
2022-12-09T23:29:01.691Z,88.03
2022-12-09T23:31:32.215Z,87.52
2022-12-09T23:34:02.202Z,87.68
2022-12-09T23:36:32.829Z,88.31
2022-12-09T23:39:02.080Z,87.01
2022-12-09T23:41:31.124Z,86.43
2022-12-09T23:43:58.892Z,86.23
2022-12-09T23:46:28.011Z,86.23
2022-12-09T23:48:56.976Z,87.62
2022-12-09T23:51:28.016Z,87.72
2022-12-09T23:53:56.949Z,87.80
2022-12-09T23:56:26.685Z,86.63
2022-12-09T23:59:06.382Z,86.41
